Portada
METAR-TAF:

METAR-TAF

Aeroports :

Chester, Connecticut, Estats Units d'Amèrica

latitud: 41-23-02N, longitud: 072-30-21W, altitud: 127 m

Observació

L'informe es va fer fa 1 hora i 36 minuts, a les 16:15 UTC
Vent calma
Temperatura 16°C
Humitat 94%
Pressió 1024 hPa
Visibilitat: 11.3 km
Cel cobert a una alçada de 300 ft

METAR: KSNC 251615Z AUTO 00000KT 7SM OVC003 16/15 A3025 RMK AO2

Hora: 13:51 (17:51 UTC)


TAF: manca

Observacions i pronòstics meteorològics de més de 4000 aeroports (METAR i TAF).

Les estacions disponibles són els punts grocs i vermells al mapa.

Posi el ratolí al punt desitjat per veure el nom de l'estació.

Feu clic per veure les observacions i els pronòstics meteorològics.

Per canviar el mapa: feu clic els botons verds amb una creu de color negre per apropar; al botó verd amb un guió per allunyar la imatge; o en les fletxes verdes per a mapes adjacents.


METAR-TAF: